Time;durP1;ratioP1;P1;durP2;ratioP2;P2;SDS_P1;SDS_P2;PMS_P1;PMS_P2;Temp;Humidity;BMP_temperature;BMP_pressure;BME280_temperature;BME280_humidity;BME280_pressure;Samples;Min_cycle;Max_cycle;Signal;HPM_P1;HPM_P2
2023/04/28 00:01:12;;;;;;;5.60;4.07;;;;;;;;;;4949770;28;20053;-68
2023/04/28 00:03:38;;;;;;;6.32;4.28;;;;;;;;;;4951527;28;20042;-67
2023/04/28 00:06:03;;;;;;;7.10;3.90;;;;;;;;;;4975162;28;20402;-68
2023/04/28 00:08:29;;;;;;;7.75;3.85;;;;;;;;;;4967393;28;20042;-67
2023/04/28 00:10:54;;;;;;;7.05;3.95;;;;;;;;;;4978892;28;20060;-67
2023/04/28 00:13:20;;;;;;;5.50;3.78;;;;;;;;;;4967147;28;20407;-67
2023/04/28 00:15:45;;;;;;;7.50;4.18;;;;;;;;;;4964428;28;20168;-67
2023/04/28 00:18:11;;;;;;;6.35;4.30;;;;;;;;;;4949673;28;20054;-67
2023/04/28 00:20:36;;;;;;;8.00;4.60;;;;;;;;;;4953969;28;20614;-67
2023/04/28 00:23:01;;;;;;;7.78;4.80;;;;;;;;;;4972150;28;20617;-67
2023/04/28 00:25:27;;;;;;;6.40;4.10;;;;;;;;;;4970095;28;20034;-67
2023/04/28 00:27:52;;;;;;;7.68;4.35;;;;;;;;;;4971796;28;20117;-67
2023/04/28 00:30:18;;;;;;;7.80;4.35;;;;;;;;;;4970934;28;20037;-67
2023/04/28 00:32:43;;;;;;;6.53;3.95;;;;;;;;;;4958557;28;20120;-67
2023/04/28 00:35:08;;;;;;;5.22;4.20;;;;;;;;;;4966381;28;20038;-67
2023/04/28 00:37:37;;;;;;;6.20;4.30;;;;;;;;;;4969110;28;20096;-67
2023/04/28 00:40:03;;;;;;;7.28;4.38;;;;;;;;;;4968568;28;20101;-67
2023/04/28 00:42:29;;;;;;;5.70;3.97;;;;;;;;;;4971970;28;20074;-66
2023/04/28 00:44:54;;;;;;;6.53;4.40;;;;;;;;;;4931969;28;20529;-68
2023/04/28 00:47:20;;;;;;;7.65;3.83;;;;;;;;;;4969568;28;20598;-68
2023/04/28 00:49:48;;;;;;;7.95;4.45;;;;;;;;;;4975515;28;20048;-67
2023/04/28 00:52:14;;;;;;;7.45;4.25;;;;;;;;;;4967797;28;20085;-67
2023/04/28 00:54:41;;;;;;;8.25;4.68;;;;;;;;;;4968567;28;20038;-68
2023/04/28 00:57:08;;;;;;;7.65;4.40;;;;;;;;;;4958441;28;20521;-68
2023/04/28 00:59:34;;;;;;;7.50;4.60;;;;;;;;;;4960552;28;20570;-67
2023/04/28 01:02:00;;;;;;;8.10;5.00;;;;;;;;;;4971818;28;20069;-69
2023/04/28 01:04:26;;;;;;;5.93;4.25;;;;;;;;;;4967485;28;20040;-67
2023/04/28 01:06:54;;;;;;;7.50;4.82;;;;;;;;;;4974299;28;20038;-67
2023/04/28 01:09:20;;;;;;;8.55;4.63;;;;;;;;;;4975314;28;20066;-68
2023/04/28 01:11:45;;;;;;;9.85;4.78;;;;;;;;;;4960438;28;20057;-67
2023/04/28 01:14:10;;;;;;;7.55;4.88;;;;;;;;;;4962073;28;20038;-66
2023/04/28 01:16:37;;;;;;;7.55;4.55;;;;;;;;;;4970710;28;20475;-68
2023/04/28 01:19:06;;;;;;;6.13;4.20;;;;;;;;;;4969913;28;20038;-68
2023/04/28 01:21:32;;;;;;;8.40;4.72;;;;;;;;;;4969131;28;20510;-68
2023/04/28 01:23:58;;;;;;;10.60;4.65;;;;;;;;;;4974261;28;20053;-67
2023/04/28 01:26:24;;;;;;;8.60;4.57;;;;;;;;;;4918603;28;20056;-68
2023/04/28 01:28:49;;;;;;;5.07;3.83;;;;;;;;;;4960189;28;20089;-67
2023/04/28 01:31:15;;;;;;;7.95;4.18;;;;;;;;;;4966275;28;20424;-67
2023/04/28 01:33:41;;;;;;;7.40;4.30;;;;;;;;;;4975267;28;20041;-66
2023/04/28 01:36:06;;;;;;;8.73;4.38;;;;;;;;;;4972479;28;20034;-66
2023/04/28 01:38:32;;;;;;;6.57;4.70;;;;;;;;;;4957158;28;20030;-67
2023/04/28 01:40:58;;;;;;;6.85;4.90;;;;;;;;;;4956779;28;20053;-67
2023/04/28 01:43:23;;;;;;;8.27;4.38;;;;;;;;;;4965783;28;20759;-68
2023/04/28 01:45:49;;;;;;;9.18;4.45;;;;;;;;;;4981753;28;20121;-67
2023/04/28 01:48:14;;;;;;;8.60;4.80;;;;;;;;;;4971037;28;20418;-67
2023/04/28 01:50:39;;;;;;;7.20;4.53;;;;;;;;;;4965682;28;20558;-67
2023/04/28 01:53:05;;;;;;;7.85;4.63;;;;;;;;;;4960912;28;20129;-67
2023/04/28 01:55:30;;;;;;;6.05;4.45;;;;;;;;;;4956741;28;20506;-67
2023/04/28 01:57:57;;;;;;;8.93;4.90;;;;;;;;;;4964990;28;20062;-68
2023/04/28 02:00:22;;;;;;;9.15;4.40;;;;;;;;;;4967250;28;20042;-68
2023/04/28 02:02:48;;;;;;;6.93;4.43;;;;;;;;;;4966685;28;20038;-68
2023/04/28 02:05:13;;;;;;;7.43;4.55;;;;;;;;;;4967008;28;20073;-67
2023/04/28 02:07:39;;;;;;;6.72;4.28;;;;;;;;;;4964707;28;20034;-67
2023/04/28 02:10:05;;;;;;;7.80;4.18;;;;;;;;;;4968805;28;20495;-67
2023/04/28 02:12:30;;;;;;;6.95;4.63;;;;;;;;;;4978049;28;20042;-66
2023/04/28 02:14:56;;;;;;;7.65;4.43;;;;;;;;;;4970634;28;20038;-67
2023/04/28 02:17:21;;;;;;;9.05;4.75;;;;;;;;;;4966858;28;20432;-68
2023/04/28 02:19:47;;;;;;;7.05;4.53;;;;;;;;;;4978450;28;20470;-67
2023/04/28 02:22:12;;;;;;;8.30;4.57;;;;;;;;;;4964594;28;20050;-67
2023/04/28 02:24:37;;;;;;;10.40;5.00;;;;;;;;;;4962255;28;20055;-68
2023/04/28 02:27:04;;;;;;;5.82;4.22;;;;;;;;;;4967792;28;20418;-67
2023/04/28 02:29:30;;;;;;;7.65;4.50;;;;;;;;;;4973181;28;20043;-68
2023/04/28 02:31:56;;;;;;;8.32;4.57;;;;;;;;;;4967320;28;20038;-67
2023/04/28 02:34:21;;;;;;;7.13;4.03;;;;;;;;;;4965343;28;20076;-65
2023/04/28 02:36:47;;;;;;;7.22;4.55;;;;;;;;;;4949505;28;20093;-67
2023/04/28 02:39:12;;;;;;;8.80;4.88;;;;;;;;;;4961299;28;20099;-66
2023/04/28 02:41:38;;;;;;;6.13;4.45;;;;;;;;;;4961140;28;20504;-65
2023/04/28 02:44:03;;;;;;;5.63;4.50;;;;;;;;;;4965292;28;20039;-67
2023/04/28 02:46:29;;;;;;;8.85;4.68;;;;;;;;;;4965746;28;20722;-65
2023/04/28 02:48:55;;;;;;;7.55;4.60;;;;;;;;;;4965536;28;20073;-67
2023/04/28 02:51:20;;;;;;;8.07;4.78;;;;;;;;;;4934296;28;20050;-66
2023/04/28 02:53:46;;;;;;;7.07;4.68;;;;;;;;;;4976918;28;20121;-65
2023/04/28 02:56:11;;;;;;;6.43;4.30;;;;;;;;;;4968108;28;20045;-64
2023/04/28 02:58:36;;;;;;;8.63;4.55;;;;;;;;;;4970105;28;20043;-65
2023/04/28 03:01:02;;;;;;;7.72;4.65;;;;;;;;;;4972200;28;20617;-62
2023/04/28 03:03:27;;;;;;;6.30;4.10;;;;;;;;;;4976802;28;20029;-68
2023/04/28 03:05:52;;;;;;;9.60;4.88;;;;;;;;;;4952332;28;20044;-66
2023/04/28 03:08:19;;;;;;;8.13;4.90;;;;;;;;;;4965149;28;20049;-65
2023/04/28 03:10:45;;;;;;;10.02;4.90;;;;;;;;;;4974055;28;20042;-66
2023/04/28 03:13:10;;;;;;;7.72;4.32;;;;;;;;;;4972088;28;20686;-64
2023/04/28 03:15:36;;;;;;;8.25;4.40;;;;;;;;;;4979452;28;20076;-63
2023/04/28 03:18:01;;;;;;;6.57;4.70;;;;;;;;;;4965080;28;20065;-64
2023/04/28 03:20:27;;;;;;;6.32;4.25;;;;;;;;;;4966201;28;20035;-67
2023/04/28 03:22:52;;;;;;;8.48;4.82;;;;;;;;;;4972469;28;20165;-67
2023/04/28 03:25:17;;;;;;;8.32;5.13;;;;;;;;;;4972475;28;20038;-65
2023/04/28 03:27:43;;;;;;;6.45;4.60;;;;;;;;;;4970856;28;20049;-66
2023/04/28 03:30:09;;;;;;;6.85;4.40;;;;;;;;;;4970784;28;20726;-64
2023/04/28 03:32:35;;;;;;;9.60;4.55;;;;;;;;;;4963529;28;20034;-63
2023/04/28 03:35:00;;;;;;;6.45;4.55;;;;;;;;;;4960088;28;20049;-66
2023/04/28 03:37:26;;;;;;;7.07;4.82;;;;;;;;;;4978442;28;20061;-66
2023/04/28 03:39:51;;;;;;;6.10;4.07;;;;;;;;;;4971354;28;20068;-64
2023/04/28 03:42:16;;;;;;;7.22;5.20;;;;;;;;;;4968951;28;20042;-65
2023/04/28 03:44:42;;;;;;;8.02;4.75;;;;;;;;;;4967852;28;20046;-66
2023/04/28 03:47:07;;;;;;;8.02;4.65;;;;;;;;;;4958579;28;20438;-65
2023/04/28 03:49:32;;;;;;;7.25;5.22;;;;;;;;;;4958722;28;20046;-64
2023/04/28 03:51:58;;;;;;;7.80;4.93;;;;;;;;;;4972138;28;20117;-65
2023/04/28 03:54:23;;;;;;;8.02;4.97;;;;;;;;;;4971409;28;20042;-68
2023/04/28 03:56:48;;;;;;;7.63;4.40;;;;;;;;;;4968961;28;20045;-66
2023/04/28 03:59:14;;;;;;;7.25;4.88;;;;;;;;;;4975529;28;20073;-66
2023/04/28 04:01:39;;;;;;;8.32;5.03;;;;;;;;;;4961977;28;20473;-65
2023/04/28 04:04:05;;;;;;;5.80;4.38;;;;;;;;;;4963575;28;20085;-63
2023/04/28 04:06:31;;;;;;;9.15;5.05;;;;;;;;;;4969517;28;20049;-64
2023/04/28 04:08:56;;;;;;;7.28;5.05;;;;;;;;;;4975962;28;20101;-65
2023/04/28 04:11:22;;;;;;;7.43;4.70;;;;;;;;;;4967632;28;20093;-66
2023/04/28 04:13:47;;;;;;;6.47;4.38;;;;;;;;;;4972537;28;20439;-64
2023/04/28 04:16:14;;;;;;;7.40;4.90;;;;;;;;;;4957824;28;20112;-65
2023/04/28 04:18:40;;;;;;;6.63;4.57;;;;;;;;;;4971410;28;20042;-65
2023/04/28 04:21:05;;;;;;;7.32;4.72;;;;;;;;;;4979610;28;20499;-66
2023/04/28 04:23:31;;;;;;;7.97;4.82;;;;;;;;;;4973868;28;20030;-65
2023/04/28 04:25:56;;;;;;;8.35;5.20;;;;;;;;;;4973055;28;20125;-65
2023/04/28 04:28:21;;;;;;;7.63;5.05;;;;;;;;;;4969991;28;20034;-66
2023/04/28 04:30:47;;;;;;;8.35;5.07;;;;;;;;;;4951929;28;20126;-66
2023/04/28 04:33:12;;;;;;;10.18;5.85;;;;;;;;;;4971111;28;20037;-67
2023/04/28 04:35:38;;;;;;;7.95;5.20;;;;;;;;;;4975997;28;20046;-67
2023/04/28 04:38:03;;;;;;;7.82;5.50;;;;;;;;;;4977412;28;20026;-67
2023/04/28 04:40:29;;;;;;;10.02;5.75;;;;;;;;;;4972516;28;20557;-67
2023/04/28 04:42:54;;;;;;;9.95;5.63;;;;;;;;;;4968947;28;20531;-67
2023/04/28 04:45:20;;;;;;;10.13;5.47;;;;;;;;;;4958364;28;20129;-68
2023/04/28 04:47:45;;;;;;;10.35;4.88;;;;;;;;;;4969853;28;20125;-67
2023/04/28 04:50:11;;;;;;;8.68;5.00;;;;;;;;;;4966975;28;20149;-68
2023/04/28 04:52:37;;;;;;;10.02;4.72;;;;;;;;;;4971859;28;20045;-67
2023/04/28 04:55:03;;;;;;;7.85;5.18;;;;;;;;;;4963991;28;20042;-66
2023/04/28 04:57:28;;;;;;;6.90;4.68;;;;;;;;;;4956800;28;20049;-64
2023/04/28 04:59:53;;;;;;;7.55;4.57;;;;;;;;;;4963324;28;20045;-63
2023/04/28 05:02:19;;;;;;;13.00;5.57;;;;;;;;;;4970797;28;20469;-66
2023/04/28 05:04:44;;;;;;;8.02;4.82;;;;;;;;;;4973048;28;20034;-67
2023/04/28 05:07:10;;;;;;;6.55;4.70;;;;;;;;;;4967940;28;20050;-67
2023/04/28 05:09:35;;;;;;;12.93;5.00;;;;;;;;;;4965711;28;20074;-67
2023/04/28 05:12:00;;;;;;;8.48;5.32;;;;;;;;;;4954590;28;20410;-69
2023/04/28 05:14:26;;;;;;;9.77;5.40;;;;;;;;;;4957226;28;20038;-67
2023/04/28 05:16:51;;;;;;;8.75;6.15;;;;;;;;;;4969751;28;20046;-67
2023/04/28 05:19:17;;;;;;;9.95;5.40;;;;;;;;;;4975337;28;20048;-67
2023/04/28 05:21:42;;;;;;;8.35;4.90;;;;;;;;;;4972397;28;20045;-67
2023/04/28 05:24:07;;;;;;;14.68;7.57;;;;;;;;;;4970920;28;20053;-67
2023/04/28 05:26:34;;;;;;;13.95;8.60;;;;;;;;;;4960909;28;20042;-66
2023/04/28 05:28:59;;;;;;;14.43;7.85;;;;;;;;;;4961438;28;20055;-68
2023/04/28 05:31:25;;;;;;;11.70;7.72;;;;;;;;;;4964534;28;20057;-67
2023/04/28 05:33:50;;;;;;;14.70;7.55;;;;;;;;;;4958199;28;20080;-66
2023/04/28 05:36:16;;;;;;;12.55;7.28;;;;;;;;;;4972221;28;20050;-68
2023/04/28 05:38:42;;;;;;;11.25;5.47;;;;;;;;;;4962507;28;20041;-67
2023/04/28 05:41:07;;;;;;;13.88;7.32;;;;;;;;;;4949154;28;20038;-67
2023/04/28 05:43:33;;;;;;;10.38;6.25;;;;;;;;;;4965769;28;20098;-66
2023/04/28 05:46:00;;;;;;;11.50;7.07;;;;;;;;;;4969060;28;20049;-67
2023/04/28 05:48:25;;;;;;;13.00;6.45;;;;;;;;;;4968045;28;20050;-65
2023/04/28 05:50:51;;;;;;;10.00;6.28;;;;;;;;;;4966737;28;20133;-66
2023/04/28 05:53:16;;;;;;;10.95;6.90;;;;;;;;;;4966381;28;20038;-67
2023/04/28 05:55:41;;;;;;;9.77;5.10;;;;;;;;;;4945533;28;20034;-68
2023/04/28 05:58:07;;;;;;;8.27;5.88;;;;;;;;;;4973983;28;20042;-66
2023/04/28 06:00:33;;;;;;;11.43;6.53;;;;;;;;;;4973736;28;20048;-68
2023/04/28 06:02:58;;;;;;;11.15;6.07;;;;;;;;;;4968242;28;20042;-67
2023/04/28 06:05:24;;;;;;;12.68;7.00;;;;;;;;;;4965761;28;20396;-66
2023/04/28 06:07:49;;;;;;;12.55;8.02;;;;;;;;;;4960577;28;20035;-66
2023/04/28 06:10:15;;;;;;;9.77;6.45;;;;;;;;;;4962348;28;20056;-66
2023/04/28 06:12:41;;;;;;;10.63;6.70;;;;;;;;;;4966270;28;20527;-67
2023/04/28 06:15:06;;;;;;;9.90;6.55;;;;;;;;;;4966001;28;20053;-65
2023/04/28 06:17:32;;;;;;;10.07;6.60;;;;;;;;;;4966315;28;20129;-66
2023/04/28 06:19:58;;;;;;;9.13;6.25;;;;;;;;;;4974412;28;20054;-65
2023/04/28 06:22:24;;;;;;;9.02;6.32;;;;;;;;;;4958521;28;20617;-68
2023/04/28 06:24:50;;;;;;;8.98;6.50;;;;;;;;;;4964211;28;20066;-67
2023/04/28 06:27:15;;;;;;;11.95;6.53;;;;;;;;;;4969752;28;20088;-66
2023/04/28 06:29:41;;;;;;;11.60;7.22;;;;;;;;;;4971517;28;20482;-66
2023/04/28 06:32:06;;;;;;;9.90;6.28;;;;;;;;;;4967155;28;20129;-67
2023/04/28 06:34:33;;;;;;;10.20;6.28;;;;;;;;;;4980763;28;20596;-66
2023/04/28 06:36:59;;;;;;;9.82;7.00;;;;;;;;;;4964672;28;20038;-68
2023/04/28 06:39:24;;;;;;;10.35;6.72;;;;;;;;;;4954778;28;20066;-65
2023/04/28 06:41:49;;;;;;;10.43;6.68;;;;;;;;;;4964962;28;20130;-66
2023/04/28 06:44:15;;;;;;;13.18;6.57;;;;;;;;;;4972886;28;20053;-67
2023/04/28 06:46:40;;;;;;;8.93;6.35;;;;;;;;;;4954704;28;20049;-67
2023/04/28 06:49:06;;;;;;;12.32;7.18;;;;;;;;;;4973293;28;20129;-67
2023/04/28 06:51:32;;;;;;;12.73;7.75;;;;;;;;;;4956686;28;20464;-69
2023/04/28 06:53:57;;;;;;;12.73;6.88;;;;;;;;;;4968348;28;20042;-68
2023/04/28 06:56:23;;;;;;;10.52;6.22;;;;;;;;;;4970340;28;20046;-68
2023/04/28 06:58:49;;;;;;;9.13;6.35;;;;;;;;;;4971014;28;20157;-69
2023/04/28 07:01:15;;;;;;;13.25;6.63;;;;;;;;;;4971536;28;20042;-69
2023/04/28 07:03:41;;;;;;;11.57;7.05;;;;;;;;;;4977759;28;20462;-68
2023/04/28 07:06:06;;;;;;;13.73;7.18;;;;;;;;;;4953638;28;20084;-68
2023/04/28 07:08:33;;;;;;;10.77;7.65;;;;;;;;;;4972512;28;20042;-69
2023/04/28 07:10:58;;;;;;;13.60;8.10;;;;;;;;;;4968684;28;20046;-68
2023/04/28 07:13:24;;;;;;;10.98;7.22;;;;;;;;;;4972914;28;20093;-68
2023/04/28 07:15:49;;;;;;;9.57;6.15;;;;;;;;;;4971077;28;20627;-68
2023/04/28 07:18:14;;;;;;;7.72;4.88;;;;;;;;;;4964975;28;20054;-67
2023/04/28 07:20:40;;;;;;;12.68;7.18;;;;;;;;;;4951145;28;20042;-68
2023/04/28 07:23:05;;;;;;;13.75;8.60;;;;;;;;;;4957603;28;20122;-69
2023/04/28 07:25:31;;;;;;;11.55;8.45;;;;;;;;;;4949455;28;20530;-68
2023/04/28 07:27:56;;;;;;;11.10;7.95;;;;;;;;;;4969436;28;20124;-68
2023/04/28 07:30:21;;;;;;;9.88;6.05;;;;;;;;;;4962170;28;20038;-69
2023/04/28 07:32:47;;;;;;;11.10;7.63;;;;;;;;;;4958534;28;20442;-68
2023/04/28 07:35:12;;;;;;;16.25;8.95;;;;;;;;;;4957355;28;20034;-69
2023/04/28 07:37:38;;;;;;;14.18;8.50;;;;;;;;;;4965655;28;20051;-68
2023/04/28 07:40:05;;;;;;;13.32;9.00;;;;;;;;;;4953273;28;20044;-68
2023/04/28 07:42:31;;;;;;;13.10;7.75;;;;;;;;;;4964512;28;20038;-69
2023/04/28 07:44:57;;;;;;;11.20;7.50;;;;;;;;;;4975105;28;20037;-69
2023/04/28 07:47:23;;;;;;;12.73;8.40;;;;;;;;;;4957731;28;20414;-68
2023/04/28 07:49:48;;;;;;;11.10;7.55;;;;;;;;;;4956142;28;20055;-68
2023/04/28 07:52:14;;;;;;;12.98;7.63;;;;;;;;;;4967103;28;20041;-68
2023/04/28 07:54:39;;;;;;;11.05;7.85;;;;;;;;;;4969602;28;20498;-68
2023/04/28 07:57:05;;;;;;;11.35;8.13;;;;;;;;;;4973295;28;20050;-69
2023/04/28 07:59:33;;;;;;;12.18;8.20;;;;;;;;;;4969490;28;20038;-68
2023/04/28 08:01:58;;;;;;;13.98;8.70;;;;;;;;;;4950321;28;20053;-69
2023/04/28 08:04:23;;;;;;;12.13;7.80;;;;;;;;;;4967172;28;20042;-68
2023/04/28 08:06:49;;;;;;;10.35;8.27;;;;;;;;;;4965456;28;20042;-68
2023/04/28 08:09:15;;;;;;;12.73;8.48;;;;;;;;;;4962280;28;20152;-68
2023/04/28 08:11:40;;;;;;;13.55;8.57;;;;;;;;;;4973345;28;20423;-68
2023/04/28 08:14:06;;;;;;;14.25;8.73;;;;;;;;;;4975986;28;20542;-68
2023/04/28 08:16:33;;;;;;;13.80;8.95;;;;;;;;;;4950560;28;20049;-68
2023/04/28 08:18:59;;;;;;;15.00;8.30;;;;;;;;;;4971354;28;20128;-67
2023/04/28 08:21:24;;;;;;;13.88;8.25;;;;;;;;;;4965508;28;20663;-68
2023/04/28 08:23:50;;;;;;;15.00;8.20;;;;;;;;;;4958315;28;20041;-68
2023/04/28 08:26:15;;;;;;;11.93;8.15;;;;;;;;;;4971285;28;20498;-69
2023/04/28 08:28:41;;;;;;;11.10;8.50;;;;;;;;;;4972514;28;20065;-67
2023/04/28 08:31:06;;;;;;;12.80;9.05;;;;;;;;;;4952987;28;20196;-68
2023/04/28 08:33:31;;;;;;;14.38;8.82;;;;;;;;;;4968073;28;20045;-68
2023/04/28 08:35:57;;;;;;;12.30;8.32;;;;;;;;;;4967954;28;20047;-68
2023/04/28 08:38:24;;;;;;;12.52;8.50;;;;;;;;;;4971853;28;20718;-69
2023/04/28 08:40:49;;;;;;;11.15;8.23;;;;;;;;;;4968759;28;20034;-69
2023/04/28 08:43:15;;;;;;;12.18;8.45;;;;;;;;;;4960877;28;20141;-68
2023/04/28 08:45:43;;;;;;;10.90;8.38;;;;;;;;;;4961980;28;20442;-67
2023/04/28 08:48:21;;;;;;;14.68;8.93;;;;;;;;;;4966604;28;20454;-67
2023/04/28 08:50:53;;;;;;;13.52;9.85;;;;;;;;;;4945501;28;20030;-67
2023/04/28 08:53:27;;;;;;;;;;;;;;;;;;4971161;28;20140;-68
2023/04/28 08:55:56;;;;;;;11.20;7.78;;;;;;;;;;4947788;28;19960;-68
2023/04/28 08:58:23;;;;;;;12.05;8.65;;;;;;;;;;4955884;28;20038;-67
2023/04/28 09:00:51;;;;;;;2.90;1.85;;;;;;;;;;4961360;28;20077;-67
2023/04/28 09:03:16;;;;;;;4.38;3.33;;;;;;;;;;4969924;28;20041;-67
2023/04/28 09:05:42;;;;;;;12.98;8.60;;;;;;;;;;4966580;28;20034;-68
2023/04/28 09:08:08;;;;;;;3.83;2.60;;;;;;;;;;4973192;28;20104;-68
2023/04/28 09:10:33;;;;;;;10.70;8.50;;;;;;;;;;4940060;28;20046;-68
2023/04/28 09:12:58;;;;;;;14.70;8.82;;;;;;;;;;4938543;28;20047;-67
2023/04/28 09:15:28;;;;;;;2.38;1.70;;;;;;;;;;4958501;28;20526;-67
2023/04/28 09:17:53;;;;;;;12.35;9.25;;;;;;;;;;4965491;28;20038;-67
2023/04/28 09:20:23;;;;;;;12.48;9.05;;;;;;;;;;4942969;28;20539;-67
2023/04/28 09:22:49;;;;;;;5.57;3.67;;;;;;;;;;4942051;28;20126;-67
2023/04/28 09:25:15;;;;;;;5.80;4.18;;;;;;;;;;4932143;28;20042;-69
2023/04/28 09:27:40;;;;;;;14.73;9.25;;;;;;;;;;4948712;28;20038;-67
2023/04/28 09:30:07;;;;;;;8.95;7.57;;;;;;;;;;4950939;28;20404;-68
2023/04/28 09:32:33;;;;;;;12.57;9.50;;;;;;;;;;4967244;28;20100;-68
2023/04/28 09:34:58;;;;;;;13.10;9.25;;;;;;;;;;4975932;28;20049;-67
2023/04/28 09:37:30;;;;;;;13.98;9.57;;;;;;;;;;4954095;28;20049;-68
2023/04/28 09:40:02;;;;;;;10.75;7.35;;;;;;;;;;4919680;28;20092;-67
2023/04/28 09:42:43;;;;;;;13.88;9.45;;;;;;;;;;4944315;28;20043;-68
2023/04/28 09:45:13;;;;;;;;;;;;;;;;;;4965724;28;20120;-67
2023/04/28 09:47:39;;;;;;;13.93;9.13;;;;;;;;;;4961494;28;19917;-68
2023/04/28 09:50:09;;;;;;;15.75;10.13;;;;;;;;;;4939932;28;20042;-68
2023/04/28 09:52:35;;;;;;;11.88;9.45;;;;;;;;;;4953852;28;20155;-68
2023/04/28 09:55:03;;;;;;;14.73;10.75;;;;;;;;;;4946995;28;20494;-68
2023/04/28 09:57:33;;;;;;;12.95;9.52;;;;;;;;;;4958430;28;20034;-67
2023/04/28 09:59:59;;;;;;;13.57;9.65;;;;;;;;;;4964470;28;20042;-67
2023/04/28 10:02:25;;;;;;;13.10;9.43;;;;;;;;;;4937112;28;20042;-68
2023/04/28 10:04:51;;;;;;;14.55;9.27;;;;;;;;;;4946572;28;20049;-67
2023/04/28 10:07:19;;;;;;;15.25;10.10;;;;;;;;;;4955806;28;20446;-68
2023/04/28 10:09:52;;;;;;;13.82;9.90;;;;;;;;;;4966226;28;20137;-67
2023/04/28 10:12:19;;;;;;;12.98;9.82;;;;;;;;;;4947402;28;20049;-67
2023/04/28 10:14:45;;;;;;;12.38;8.77;;;;;;;;;;4954501;28;20042;-67
2023/04/28 10:17:16;;;;;;;13.57;9.13;;;;;;;;;;4933190;28;20100;-68
2023/04/28 10:19:43;;;;;;;12.15;9.43;;;;;;;;;;4953320;28;20041;-69
2023/04/28 10:22:33;;;;;;;13.68;9.10;;;;;;;;;;4945708;28;20046;-68
2023/04/28 10:25:14;;;;;;;12.35;9.27;;;;;;;;;;4962552;28;20138;-68
2023/04/28 10:27:44;;;;;;;14.63;9.52;;;;;;;;;;4951121;28;20055;-67
2023/04/28 10:30:14;;;;;;;10.73;8.57;;;;;;;;;;4933315;28;20035;-69
2023/04/28 10:32:40;;;;;;;14.48;9.18;;;;;;;;;;4931019;28;20046;-68
2023/04/28 10:35:35;;;;;;;9.85;7.22;;;;;;;;;;4946573;28;20132;-68
2023/04/28 10:38:13;;;;;;;10.98;8.75;;;;;;;;;;4893131;28;20049;-67
2023/04/28 10:40:38;;;;;;;10.88;8.57;;;;;;;;;;4959566;28;20045;-67
2023/04/28 10:43:05;;;;;;;11.40;8.18;;;;;;;;;;4960070;28;20118;-68
2023/04/28 10:45:52;;;;;;;14.38;9.30;;;;;;;;;;4960787;28;20049;-67
2023/04/28 10:48:18;;;;;;;11.15;7.70;;;;;;;;;;4911928;28;20047;-68
2023/04/28 10:51:02;;;;;;;12.48;8.85;;;;;;;;;;4957178;28;20049;-69
2023/04/28 10:53:46;;;;;;;11.95;8.85;;;;;;;;;;4942463;28;20622;-67
2023/04/28 10:56:26;;;;;;;10.52;6.25;;;;;;;;;;4958067;28;20042;-68
2023/04/28 10:58:51;;;;;;;5.03;2.88;;;;;;;;;;4933039;28;20062;-68
2023/04/28 11:01:28;;;;;;;13.05;7.97;;;;;;;;;;4948984;28;20066;-67
2023/04/28 11:04:06;;;;;;;10.65;8.43;;;;;;;;;;4971221;28;20042;-67
2023/04/28 11:06:38;;;;;;;12.13;8.50;;;;;;;;;;4952826;28;20031;-67
2023/04/28 11:09:16;;;;;;;11.98;8.07;;;;;;;;;;4923834;28;20057;-67
2023/04/28 11:11:54;;;;;;;7.97;5.38;;;;;;;;;;4939299;28;20061;-68
2023/04/28 11:14:20;;;;;;;10.68;7.72;;;;;;;;;;4953308;28;20055;-68
2023/04/28 11:17:01;;;;;;;3.53;2.40;;;;;;;;;;4949803;28;20054;-68
2023/04/28 11:19:29;;;;;;;3.50;2.53;;;;;;;;;;4934514;28;20037;-67
2023/04/28 11:21:56;;;;;;;8.45;6.65;;;;;;;;;;4959568;28;20088;-68
2023/04/28 11:24:29;;;;;;;8.07;5.95;;;;;;;;;;4958448;28;20042;-66
2023/04/28 11:26:55;;;;;;;10.13;6.60;;;;;;;;;;4970895;28;20048;-69
2023/04/28 11:29:36;;;;;;;4.05;2.40;;;;;;;;;;4972678;28;20142;-69
2023/04/28 11:32:03;;;;;;;11.45;8.15;;;;;;;;;;4929981;28;20400;-68
2023/04/28 11:34:28;;;;;;;13.05;8.43;;;;;;;;;;4969071;28;20046;-67
2023/04/28 11:36:54;;;;;;;11.25;7.30;;;;;;;;;;4953910;28;20030;-68
2023/04/28 11:39:28;;;;;;;13.77;7.78;;;;;;;;;;4946547;28;20145;-68
2023/04/28 11:41:54;;;;;;;10.27;8.32;;;;;;;;;;4958634;28;20486;-67
2023/04/28 11:44:21;;;;;;;10.77;7.10;;;;;;;;;;4945765;28;20069;-67
2023/04/28 11:46:54;;;;;;;10.98;7.72;;;;;;;;;;4971370;28;20102;-67
2023/04/28 11:49:23;;;;;;;9.23;7.65;;;;;;;;;;4946231;28;20074;-67
2023/04/28 11:51:50;;;;;;;8.07;5.22;;;;;;;;;;4946927;28;20042;-68
2023/04/28 11:54:19;;;;;;;7.30;5.57;;;;;;;;;;4949365;28;20507;-67
2023/04/28 11:56:45;;;;;;;14.52;8.50;;;;;;;;;;4938185;28;20058;-67
2023/04/28 11:59:12;;;;;;;12.65;8.32;;;;;;;;;;4955877;28;20042;-68
2023/04/28 12:01:51;;;;;;;11.23;7.70;;;;;;;;;;4938398;28;20049;-68
2023/04/28 12:04:35;;;;;;;11.65;8.38;;;;;;;;;;4948343;28;20603;-66
2023/04/28 12:07:00;;;;;;;9.07;7.50;;;;;;;;;;4969735;28;20035;-67
2023/04/28 12:09:26;;;;;;;12.05;7.95;;;;;;;;;;4955616;28;20043;-69
2023/04/28 12:11:56;;;;;;;11.73;8.38;;;;;;;;;;4944823;28;20034;-67
2023/04/28 12:14:21;;;;;;;9.38;8.20;;;;;;;;;;4963433;28;20047;-69
2023/04/28 12:16:48;;;;;;;10.82;8.40;;;;;;;;;;4947264;28;20046;-67
2023/04/28 12:19:14;;;;;;;11.82;8.20;;;;;;;;;;4954479;28;20027;-67
2023/04/28 12:21:41;;;;;;;11.57;8.48;;;;;;;;;;4926169;28;20059;-67
2023/04/28 12:24:20;;;;;;;11.82;8.20;;;;;;;;;;4942642;28;20034;-67
2023/04/28 12:26:48;;;;;;;12.48;8.25;;;;;;;;;;4956982;28;20792;-67
2023/04/28 12:29:36;;;;;;;8.00;5.93;;;;;;;;;;4959092;28;20066;-66
2023/04/28 12:32:03;;;;;;;10.82;7.65;;;;;;;;;;4911569;28;20036;-67
2023/04/28 12:34:29;;;;;;;10.98;8.35;;;;;;;;;;4912650;28;20049;-67
2023/04/28 12:36:55;;;;;;;9.38;7.47;;;;;;;;;;4953294;28;20628;-67
2023/04/28 12:39:21;;;;;;;10.40;8.85;;;;;;;;;;4954851;28;20076;-67
2023/04/28 12:41:47;;;;;;;8.60;6.80;;;;;;;;;;4950956;28;20038;-68
2023/04/28 12:44:14;;;;;;;9.55;7.85;;;;;;;;;;4973135;28;20038;-66
2023/04/28 12:46:40;;;;;;;11.77;7.57;;;;;;;;;;4936753;28;20069;-67
2023/04/28 12:49:05;;;;;;;12.88;9.10;;;;;;;;;;4941197;28;20555;-67
2023/04/28 12:51:31;;;;;;;12.02;8.43;;;;;;;;;;4959358;28;20053;-66
2023/04/28 12:53:56;;;;;;;9.55;7.78;;;;;;;;;;4970817;28;20081;-68
2023/04/28 12:56:22;;;;;;;13.13;8.65;;;;;;;;;;4954730;28;20034;-69
2023/04/28 12:58:48;;;;;;;12.70;8.73;;;;;;;;;;4941917;28;20027;-66
2023/04/28 13:01:14;;;;;;;12.35;8.00;;;;;;;;;;4925473;28;20052;-68
2023/04/28 13:03:40;;;;;;;10.00;8.18;;;;;;;;;;4954546;28;20042;-68
2023/04/28 13:06:05;;;;;;;10.20;8.23;;;;;;;;;;4955757;28;20054;-66
2023/04/28 13:08:32;;;;;;;15.45;9.73;;;;;;;;;;4959456;28;20035;-67
2023/04/28 13:10:58;;;;;;;11.90;8.50;;;;;;;;;;4954080;28;20069;-67
2023/04/28 13:13:23;;;;;;;11.50;8.25;;;;;;;;;;4955663;28;20035;-68
2023/04/28 13:15:49;;;;;;;9.35;7.72;;;;;;;;;;4920205;28;20039;-68
2023/04/28 13:18:15;;;;;;;10.02;7.72;;;;;;;;;;4929646;28;20034;-68
2023/04/28 13:20:40;;;;;;;11.18;8.20;;;;;;;;;;4939380;28;20088;-68
2023/04/28 13:23:06;;;;;;;9.02;8.07;;;;;;;;;;4946375;28;20035;-67
2023/04/28 13:25:31;;;;;;;4.60;2.03;;;;;;;;;;4937539;28;20045;-66
2023/04/28 13:27:56;;;;;;;10.90;7.88;;;;;;;;;;4949060;28;20491;-69
2023/04/28 13:30:25;;;;;;;12.82;7.82;;;;;;;;;;4908900;28;20148;-68
2023/04/28 13:32:51;;;;;;;10.65;8.43;;;;;;;;;;4949641;28;20050;-66
2023/04/28 13:35:16;;;;;;;11.15;8.18;;;;;;;;;;4953385;28;20038;-67
2023/04/28 13:37:44;;;;;;;8.63;4.65;;;;;;;;;;4962399;28;20047;-66
2023/04/28 13:40:11;;;;;;;10.30;8.23;;;;;;;;;;4935730;28;20036;-68
2023/04/28 13:42:36;;;;;;;12.25;8.18;;;;;;;;;;4929775;28;20042;-67
2023/04/28 13:45:03;;;;;;;10.63;8.00;;;;;;;;;;4934112;28;20047;-66
2023/04/28 13:47:31;;;;;;;10.27;8.02;;;;;;;;;;4954073;28;20630;-67
2023/04/28 13:49:58;;;;;;;10.40;7.88;;;;;;;;;;4932161;28;20124;-67
2023/04/28 13:52:25;;;;;;;11.57;8.43;;;;;;;;;;4945714;28;20049;-67
2023/04/28 13:54:50;;;;;;;9.57;8.40;;;;;;;;;;4934033;28;20232;-67
2023/04/28 13:57:15;;;;;;;11.70;9.02;;;;;;;;;;4912103;28;20117;-67
2023/04/28 13:59:41;;;;;;;9.15;7.40;;;;;;;;;;4966999;28;20038;-68
2023/04/28 14:02:08;;;;;;;10.95;8.43;;;;;;;;;;4947441;28;20049;-66
2023/04/28 14:04:33;;;;;;;11.45;8.80;;;;;;;;;;4969774;28;20051;-67
2023/04/28 14:06:59;;;;;;;10.93;8.00;;;;;;;;;;4957972;28;20094;-67
2023/04/28 14:09:24;;;;;;;10.43;8.90;;;;;;;;;;4949739;28;20820;-67
2023/04/28 14:11:50;;;;;;;11.75;7.57;;;;;;;;;;4920314;28;20094;-67
2023/04/28 14:14:15;;;;;;;10.45;7.50;;;;;;;;;;4940837;28;20065;-67
2023/04/28 14:16:40;;;;;;;7.13;4.40;;;;;;;;;;4964264;28;20043;-67
2023/04/28 14:19:06;;;;;;;12.57;8.82;;;;;;;;;;4949775;28;20182;-67
2023/04/28 14:21:32;;;;;;;12.45;8.75;;;;;;;;;;4943222;28;20045;-67
2023/04/28 14:23:58;;;;;;;11.02;8.88;;;;;;;;;;4967324;28;20045;-67
2023/04/28 14:26:24;;;;;;;10.57;9.40;;;;;;;;;;4925298;28;20039;-67
2023/04/28 14:28:49;;;;;;;16.50;13.88;;;;;;;;;;4970771;28;20696;-66
2023/04/28 14:31:15;;;;;;;10.55;7.45;;;;;;;;;;4947425;28;20058;-66
2023/04/28 14:33:40;;;;;;;10.35;8.82;;;;;;;;;;4942201;28;20442;-67